sensor_id;sensor_type;location;lat;lon;timestamp;P1;durP1;ratioP1;P2;durP2;ratioP2
19877;SDS011;10101;52.204;9.910;2024-02-14T00:00:14;4.27;;;1.10;;
19877;SDS011;10101;52.204;9.910;2024-02-14T00:02:41;1.80;;;1.33;;
19877;SDS011;10101;52.204;9.910;2024-02-14T00:05:09;3.43;;;1.27;;
19877;SDS011;10101;52.204;9.910;2024-02-14T00:07:36;2.00;;;1.20;;
19877;SDS011;10101;52.204;9.910;2024-02-14T00:10:06;2.97;;;1.27;;
19877;SDS011;10101;52.204;9.910;2024-02-14T00:12:33;1.20;;;1.10;;
19877;SDS011;10101;52.204;9.910;2024-02-14T00:15:01;1.37;;;1.20;;
19877;SDS011;10101;52.204;9.910;2024-02-14T00:17:29;2.83;;;1.30;;
19877;SDS011;10101;52.204;9.910;2024-02-14T00:19:56;1.73;;;1.30;;
19877;SDS011;10101;52.204;9.910;2024-02-14T00:22:23;2.70;;;1.57;;
19877;SDS011;10101;52.204;9.910;2024-02-14T00:24:49;1.70;;;1.10;;
19877;SDS011;10101;52.204;9.910;2024-02-14T00:27:17;2.37;;;1.33;;
19877;SDS011;10101;52.204;9.910;2024-02-14T00:29:44;3.63;;;1.33;;
19877;SDS011;10101;52.204;9.910;2024-02-14T00:32:11;3.90;;;1.13;;
19877;SDS011;10101;52.204;9.910;2024-02-14T00:34:39;2.93;;;1.20;;
19877;SDS011;10101;52.204;9.910;2024-02-14T00:37:05;2.87;;;1.33;;
19877;SDS011;10101;52.204;9.910;2024-02-14T00:39:32;3.47;;;1.30;;
19877;SDS011;10101;52.204;9.910;2024-02-14T00:41:59;2.00;;;1.10;;
19877;SDS011;10101;52.204;9.910;2024-02-14T00:44:27;3.20;;;1.40;;
19877;SDS011;10101;52.204;9.910;2024-02-14T00:46:55;3.07;;;1.40;;
19877;SDS011;10101;52.204;9.910;2024-02-14T00:49:24;2.13;;;1.47;;
19877;SDS011;10101;52.204;9.910;2024-02-14T00:51:50;2.43;;;1.27;;
19877;SDS011;10101;52.204;9.910;2024-02-14T00:54:17;2.80;;;1.27;;
19877;SDS011;10101;52.204;9.910;2024-02-14T00:56:44;1.67;;;1.27;;
19877;SDS011;10101;52.204;9.910;2024-02-14T00:59:11;1.87;;;1.30;;
19877;SDS011;10101;52.204;9.910;2024-02-14T01:01:39;2.77;;;1.43;;
19877;SDS011;10101;52.204;9.910;2024-02-14T01:04:06;3.07;;;1.50;;
19877;SDS011;10101;52.204;9.910;2024-02-14T01:06:33;2.70;;;1.13;;
19877;SDS011;10101;52.204;9.910;2024-02-14T01:08:59;1.43;;;1.33;;
19877;SDS011;10101;52.204;9.910;2024-02-14T01:11:26;4.20;;;1.70;;
19877;SDS011;10101;52.204;9.910;2024-02-14T01:13:53;4.87;;;1.60;;
19877;SDS011;10101;52.204;9.910;2024-02-14T01:16:20;3.17;;;1.30;;
19877;SDS011;10101;52.204;9.910;2024-02-14T01:18:48;3.10;;;1.27;;
19877;SDS011;10101;52.204;9.910;2024-02-14T01:21:15;3.90;;;1.37;;
19877;SDS011;10101;52.204;9.910;2024-02-14T01:23:42;2.87;;;1.30;;
19877;SDS011;10101;52.204;9.910;2024-02-14T01:26:08;3.00;;;1.50;;
19877;SDS011;10101;52.204;9.910;2024-02-14T01:28:35;3.03;;;1.40;;
19877;SDS011;10101;52.204;9.910;2024-02-14T01:31:03;1.80;;;1.30;;
19877;SDS011;10101;52.204;9.910;2024-02-14T01:33:29;4.13;;;1.50;;
19877;SDS011;10101;52.204;9.910;2024-02-14T01:35:58;4.40;;;1.40;;
19877;SDS011;10101;52.204;9.910;2024-02-14T01:38:24;2.20;;;1.50;;
19877;SDS011;10101;52.204;9.910;2024-02-14T01:40:51;2.03;;;1.30;;
19877;SDS011;10101;52.204;9.910;2024-02-14T01:43:19;3.03;;;1.90;;
19877;SDS011;10101;52.204;9.910;2024-02-14T01:45:46;2.30;;;1.57;;
19877;SDS011;10101;52.204;9.910;2024-02-14T01:48:13;2.53;;;1.50;;
19877;SDS011;10101;52.204;9.910;2024-02-14T01:50:43;3.67;;;1.60;;
19877;SDS011;10101;52.204;9.910;2024-02-14T01:53:12;4.93;;;1.60;;
19877;SDS011;10101;52.204;9.910;2024-02-14T01:55:39;1.73;;;1.40;;
19877;SDS011;10101;52.204;9.910;2024-02-14T01:58:06;4.23;;;1.43;;
19877;SDS011;10101;52.204;9.910;2024-02-14T02:00:34;2.63;;;1.50;;
19877;SDS011;10101;52.204;9.910;2024-02-14T02:03:01;3.33;;;1.60;;
19877;SDS011;10101;52.204;9.910;2024-02-14T02:05:27;4.43;;;1.70;;
19877;SDS011;10101;52.204;9.910;2024-02-14T02:07:54;2.10;;;1.50;;
19877;SDS011;10101;52.204;9.910;2024-02-14T02:10:22;1.57;;;1.40;;
19877;SDS011;10101;52.204;9.910;2024-02-14T02:12:50;2.80;;;1.73;;
19877;SDS011;10101;52.204;9.910;2024-02-14T02:15:23;3.80;;;1.70;;
19877;SDS011;10101;52.204;9.910;2024-02-14T02:17:50;4.03;;;1.50;;
19877;SDS011;10101;52.204;9.910;2024-02-14T02:20:18;5.53;;;1.80;;
19877;SDS011;10101;52.204;9.910;2024-02-14T02:22:47;3.63;;;1.87;;
19877;SDS011;10101;52.204;9.910;2024-02-14T02:25:14;2.73;;;2.00;;
19877;SDS011;10101;52.204;9.910;2024-02-14T02:27:41;3.23;;;1.80;;
19877;SDS011;10101;52.204;9.910;2024-02-14T02:30:08;3.20;;;1.60;;
19877;SDS011;10101;52.204;9.910;2024-02-14T02:32:35;3.57;;;2.07;;
19877;SDS011;10101;52.204;9.910;2024-02-14T02:35:02;3.77;;;1.90;;
19877;SDS011;10101;52.204;9.910;2024-02-14T02:37:30;2.90;;;1.87;;
19877;SDS011;10101;52.204;9.910;2024-02-14T02:39:58;2.47;;;1.90;;
19877;SDS011;10101;52.204;9.910;2024-02-14T02:42:25;4.67;;;2.20;;
19877;SDS011;10101;52.204;9.910;2024-02-14T02:44:51;3.27;;;1.90;;
19877;SDS011;10101;52.204;9.910;2024-02-14T02:47:18;6.13;;;2.27;;
19877;SDS011;10101;52.204;9.910;2024-02-14T02:49:45;4.03;;;1.67;;
19877;SDS011;10101;52.204;9.910;2024-02-14T02:52:11;4.83;;;1.97;;
19877;SDS011;10101;52.204;9.910;2024-02-14T02:54:39;6.43;;;2.23;;
19877;SDS011;10101;52.204;9.910;2024-02-14T02:57:10;3.80;;;1.80;;
19877;SDS011;10101;52.204;9.910;2024-02-14T02:59:36;2.93;;;2.00;;
19877;SDS011;10101;52.204;9.910;2024-02-14T03:02:07;6.57;;;2.10;;
19877;SDS011;10101;52.204;9.910;2024-02-14T03:04:37;3.97;;;1.90;;
19877;SDS011;10101;52.204;9.910;2024-02-14T03:07:03;5.47;;;1.70;;
19877;SDS011;10101;52.204;9.910;2024-02-14T03:09:33;4.30;;;1.70;;
19877;SDS011;10101;52.204;9.910;2024-02-14T03:12:00;2.70;;;1.70;;
19877;SDS011;10101;52.204;9.910;2024-02-14T03:14:29;5.83;;;2.13;;
19877;SDS011;10101;52.204;9.910;2024-02-14T03:16:57;4.47;;;1.80;;
19877;SDS011;10101;52.204;9.910;2024-02-14T03:19:24;3.50;;;1.90;;
19877;SDS011;10101;52.204;9.910;2024-02-14T03:21:52;2.57;;;1.87;;
19877;SDS011;10101;52.204;9.910;2024-02-14T03:24:18;3.27;;;1.70;;
19877;SDS011;10101;52.204;9.910;2024-02-14T03:26:45;3.33;;;1.93;;
19877;SDS011;10101;52.204;9.910;2024-02-14T03:29:12;3.50;;;1.87;;
19877;SDS011;10101;52.204;9.910;2024-02-14T03:31:43;4.33;;;1.80;;
19877;SDS011;10101;52.204;9.910;2024-02-14T03:34:09;4.97;;;2.00;;
19877;SDS011;10101;52.204;9.910;2024-02-14T03:36:36;5.90;;;1.80;;
19877;SDS011;10101;52.204;9.910;2024-02-14T03:39:04;6.10;;;1.90;;
19877;SDS011;10101;52.204;9.910;2024-02-14T03:41:33;3.83;;;1.63;;
19877;SDS011;10101;52.204;9.910;2024-02-14T03:44:00;4.20;;;1.90;;
19877;SDS011;10101;52.204;9.910;2024-02-14T03:46:28;4.77;;;1.83;;
19877;SDS011;10101;52.204;9.910;2024-02-14T03:48:56;2.60;;;1.73;;
19877;SDS011;10101;52.204;9.910;2024-02-14T03:51:23;4.13;;;2.00;;
19877;SDS011;10101;52.204;9.910;2024-02-14T03:53:50;3.63;;;1.80;;
19877;SDS011;10101;52.204;9.910;2024-02-14T03:56:17;2.40;;;1.60;;
19877;SDS011;10101;52.204;9.910;2024-02-14T03:58:44;4.03;;;2.10;;
19877;SDS011;10101;52.204;9.910;2024-02-14T04:01:12;4.03;;;1.80;;
19877;SDS011;10101;52.204;9.910;2024-02-14T04:03:39;5.93;;;1.90;;
19877;SDS011;10101;52.204;9.910;2024-02-14T04:06:07;4.20;;;1.97;;
19877;SDS011;10101;52.204;9.910;2024-02-14T04:08:33;4.47;;;1.60;;
19877;SDS011;10101;52.204;9.910;2024-02-14T04:11:00;3.53;;;2.03;;
19877;SDS011;10101;52.204;9.910;2024-02-14T04:13:27;3.37;;;1.80;;
19877;SDS011;10101;52.204;9.910;2024-02-14T04:15:54;3.10;;;1.73;;
19877;SDS011;10101;52.204;9.910;2024-02-14T04:18:20;2.27;;;1.67;;
19877;SDS011;10101;52.204;9.910;2024-02-14T04:20:47;4.23;;;1.90;;
19877;SDS011;10101;52.204;9.910;2024-02-14T04:23:15;3.07;;;1.50;;
19877;SDS011;10101;52.204;9.910;2024-02-14T04:25:42;3.00;;;1.63;;
19877;SDS011;10101;52.204;9.910;2024-02-14T04:28:08;3.77;;;1.93;;
19877;SDS011;10101;52.204;9.910;2024-02-14T04:30:36;4.93;;;1.90;;
19877;SDS011;10101;52.204;9.910;2024-02-14T04:33:03;4.73;;;2.00;;
19877;SDS011;10101;52.204;9.910;2024-02-14T04:35:31;4.77;;;1.87;;
19877;SDS011;10101;52.204;9.910;2024-02-14T04:37:58;2.67;;;1.60;;
19877;SDS011;10101;52.204;9.910;2024-02-14T04:40:27;2.50;;;1.60;;
19877;SDS011;10101;52.204;9.910;2024-02-14T04:42:54;2.57;;;1.60;;
19877;SDS011;10101;52.204;9.910;2024-02-14T04:45:20;3.37;;;1.70;;
19877;SDS011;10101;52.204;9.910;2024-02-14T04:47:47;4.23;;;1.70;;
19877;SDS011;10101;52.204;9.910;2024-02-14T04:50:14;3.90;;;1.67;;
19877;SDS011;10101;52.204;9.910;2024-02-14T04:52:41;3.27;;;1.50;;
19877;SDS011;10101;52.204;9.910;2024-02-14T04:55:08;4.13;;;1.80;;
19877;SDS011;10101;52.204;9.910;2024-02-14T04:57:36;2.10;;;1.73;;
19877;SDS011;10101;52.204;9.910;2024-02-14T05:00:03;3.30;;;1.67;;
19877;SDS011;10101;52.204;9.910;2024-02-14T05:02:31;5.77;;;2.10;;
19877;SDS011;10101;52.204;9.910;2024-02-14T05:04:57;2.77;;;1.53;;
19877;SDS011;10101;52.204;9.910;2024-02-14T05:07:24;2.97;;;1.70;;
19877;SDS011;10101;52.204;9.910;2024-02-14T05:09:51;3.33;;;1.70;;
19877;SDS011;10101;52.204;9.910;2024-02-14T05:12:20;3.23;;;1.80;;
19877;SDS011;10101;52.204;9.910;2024-02-14T05:14:48;4.47;;;1.83;;
19877;SDS011;10101;52.204;9.910;2024-02-14T05:17:15;4.33;;;1.67;;
19877;SDS011;10101;52.204;9.910;2024-02-14T05:19:42;3.70;;;1.50;;
19877;SDS011;10101;52.204;9.910;2024-02-14T05:22:09;2.93;;;1.50;;
19877;SDS011;10101;52.204;9.910;2024-02-14T05:24:35;5.53;;;1.50;;
19877;SDS011;10101;52.204;9.910;2024-02-14T05:27:03;4.80;;;1.70;;
19877;SDS011;10101;52.204;9.910;2024-02-14T05:29:30;3.23;;;1.73;;
19877;SDS011;10101;52.204;9.910;2024-02-14T05:31:59;3.03;;;1.57;;
19877;SDS011;10101;52.204;9.910;2024-02-14T05:34:26;3.10;;;1.70;;
19877;SDS011;10101;52.204;9.910;2024-02-14T05:36:53;3.73;;;1.80;;
19877;SDS011;10101;52.204;9.910;2024-02-14T05:39:20;2.53;;;1.33;;
19877;SDS011;10101;52.204;9.910;2024-02-14T05:41:47;3.90;;;1.70;;
19877;SDS011;10101;52.204;9.910;2024-02-14T05:44:15;2.77;;;1.50;;
19877;SDS011;10101;52.204;9.910;2024-02-14T05:46:42;1.93;;;1.50;;
19877;SDS011;10101;52.204;9.910;2024-02-14T05:49:10;2.87;;;1.60;;
19877;SDS011;10101;52.204;9.910;2024-02-14T05:51:37;2.73;;;1.40;;
19877;SDS011;10101;52.204;9.910;2024-02-14T05:54:03;3.37;;;1.57;;
19877;SDS011;10101;52.204;9.910;2024-02-14T05:56:30;7.00;;;1.40;;
19877;SDS011;10101;52.204;9.910;2024-02-14T05:58:57;2.63;;;1.67;;
19877;SDS011;10101;52.204;9.910;2024-02-14T06:01:24;4.83;;;1.63;;
19877;SDS011;10101;52.204;9.910;2024-02-14T06:03:51;2.43;;;1.40;;
19877;SDS011;10101;52.204;9.910;2024-02-14T06:06:19;2.43;;;1.60;;
19877;SDS011;10101;52.204;9.910;2024-02-14T06:08:46;4.63;;;1.50;;
19877;SDS011;10101;52.204;9.910;2024-02-14T06:11:13;2.13;;;1.37;;
19877;SDS011;10101;52.204;9.910;2024-02-14T06:13:41;2.73;;;1.40;;
19877;SDS011;10101;52.204;9.910;2024-02-14T06:16:08;3.30;;;1.40;;
19877;SDS011;10101;52.204;9.910;2024-02-14T06:18:36;2.93;;;1.53;;
19877;SDS011;10101;52.204;9.910;2024-02-14T06:21:04;1.63;;;1.20;;
19877;SDS011;10101;52.204;9.910;2024-02-14T06:23:32;3.27;;;1.47;;
19877;SDS011;10101;52.204;9.910;2024-02-14T06:26:02;3.53;;;1.73;;
19877;SDS011;10101;52.204;9.910;2024-02-14T06:28:29;3.13;;;1.50;;
19877;SDS011;10101;52.204;9.910;2024-02-14T06:30:56;1.50;;;1.37;;
19877;SDS011;10101;52.204;9.910;2024-02-14T06:33:23;2.10;;;1.47;;
19877;SDS011;10101;52.204;9.910;2024-02-14T06:35:50;3.17;;;1.47;;
19877;SDS011;10101;52.204;9.910;2024-02-14T06:38:16;1.57;;;1.23;;
19877;SDS011;10101;52.204;9.910;2024-02-14T06:40:44;2.67;;;1.50;;
19877;SDS011;10101;52.204;9.910;2024-02-14T06:43:11;2.53;;;1.43;;
19877;SDS011;10101;52.204;9.910;2024-02-14T06:45:38;3.00;;;1.60;;
19877;SDS011;10101;52.204;9.910;2024-02-14T06:48:05;3.50;;;1.40;;
19877;SDS011;10101;52.204;9.910;2024-02-14T06:50:34;2.37;;;1.40;;
19877;SDS011;10101;52.204;9.910;2024-02-14T06:53:01;2.43;;;1.10;;
19877;SDS011;10101;52.204;9.910;2024-02-14T06:55:27;1.47;;;1.30;;
19877;SDS011;10101;52.204;9.910;2024-02-14T06:57:56;3.60;;;1.60;;
19877;SDS011;10101;52.204;9.910;2024-02-14T07:00:23;1.83;;;1.43;;
19877;SDS011;10101;52.204;9.910;2024-02-14T07:02:50;2.03;;;1.27;;
19877;SDS011;10101;52.204;9.910;2024-02-14T07:05:17;5.63;;;1.60;;
19877;SDS011;10101;52.204;9.910;2024-02-14T07:07:43;4.50;;;1.27;;
19877;SDS011;10101;52.204;9.910;2024-02-14T07:10:10;2.53;;;1.30;;
19877;SDS011;10101;52.204;9.910;2024-02-14T07:12:37;1.97;;;1.17;;
19877;SDS011;10101;52.204;9.910;2024-02-14T07:15:06;2.23;;;1.10;;
19877;SDS011;10101;52.204;9.910;2024-02-14T07:17:33;4.50;;;1.40;;
19877;SDS011;10101;52.204;9.910;2024-02-14T07:20:00;1.80;;;1.23;;
19877;SDS011;10101;52.204;9.910;2024-02-14T07:22:27;3.23;;;1.20;;
19877;SDS011;10101;52.204;9.910;2024-02-14T07:24:55;2.80;;;1.30;;
19877;SDS011;10101;52.204;9.910;2024-02-14T07:27:22;2.07;;;1.00;;
19877;SDS011;10101;52.204;9.910;2024-02-14T07:29:49;2.73;;;1.20;;
19877;SDS011;10101;52.204;9.910;2024-02-14T07:32:17;2.50;;;1.40;;
19877;SDS011;10101;52.204;9.910;2024-02-14T07:34:44;4.57;;;1.07;;
19877;SDS011;10101;52.204;9.910;2024-02-14T07:37:11;3.00;;;1.30;;
19877;SDS011;10101;52.204;9.910;2024-02-14T07:39:40;1.47;;;1.10;;
19877;SDS011;10101;52.204;9.910;2024-02-14T07:42:06;2.47;;;1.40;;
19877;SDS011;10101;52.204;9.910;2024-02-14T07:44:33;1.40;;;1.30;;
19877;SDS011;10101;52.204;9.910;2024-02-14T07:47:01;2.07;;;1.30;;
19877;SDS011;10101;52.204;9.910;2024-02-14T07:49:29;1.93;;;1.37;;
19877;SDS011;10101;52.204;9.910;2024-02-14T07:51:56;1.73;;;1.00;;
19877;SDS011;10101;52.204;9.910;2024-02-14T07:54:23;2.23;;;1.00;;
19877;SDS011;10101;52.204;9.910;2024-02-14T07:56:50;2.27;;;1.40;;
19877;SDS011;10101;52.204;9.910;2024-02-14T07:59:17;2.07;;;1.10;;
19877;SDS011;10101;52.204;9.910;2024-02-14T08:01:45;1.90;;;1.07;;
19877;SDS011;10101;52.204;9.910;2024-02-14T08:04:12;1.93;;;1.13;;
19877;SDS011;10101;52.204;9.910;2024-02-14T08:06:40;1.60;;;1.10;;
19877;SDS011;10101;52.204;9.910;2024-02-14T08:09:06;1.73;;;1.00;;
19877;SDS011;10101;52.204;9.910;2024-02-14T08:11:34;2.50;;;1.00;;
19877;SDS011;10101;52.204;9.910;2024-02-14T08:14:01;2.43;;;1.00;;
19877;SDS011;10101;52.204;9.910;2024-02-14T08:16:28;1.90;;;1.37;;
19877;SDS011;10101;52.204;9.910;2024-02-14T08:18:55;1.33;;;1.00;;
19877;SDS011;10101;52.204;9.910;2024-02-14T08:21:24;0.90;;;0.90;;
19877;SDS011;10101;52.204;9.910;2024-02-14T08:23:52;2.97;;;1.03;;
19877;SDS011;10101;52.204;9.910;2024-02-14T08:26:19;2.07;;;1.03;;
19877;SDS011;10101;52.204;9.910;2024-02-14T08:28:47;2.20;;;0.90;;
19877;SDS011;10101;52.204;9.910;2024-02-14T08:31:14;1.60;;;0.87;;
19877;SDS011;10101;52.204;9.910;2024-02-14T08:33:41;0.83;;;0.80;;
19877;SDS011;10101;52.204;9.910;2024-02-14T08:36:08;2.47;;;0.90;;
19877;SDS011;10101;52.204;9.910;2024-02-14T08:38:35;0.80;;;0.70;;
19877;SDS011;10101;52.204;9.910;2024-02-14T08:41:03;1.00;;;0.90;;
19877;SDS011;10101;52.204;9.910;2024-02-14T08:43:31;0.90;;;0.90;;
19877;SDS011;10101;52.204;9.910;2024-02-14T08:45:58;1.23;;;1.07;;
19877;SDS011;10101;52.204;9.910;2024-02-14T08:48:25;1.20;;;1.00;;
19877;SDS011;10101;52.204;9.910;2024-02-14T08:50:54;2.30;;;0.90;;
19877;SDS011;10101;52.204;9.910;2024-02-14T08:53:20;1.80;;;1.20;;
19877;SDS011;10101;52.204;9.910;2024-02-14T08:55:47;1.27;;;1.17;;
19877;SDS011;10101;52.204;9.910;2024-02-14T08:58:15;1.33;;;1.10;;
19877;SDS011;10101;52.204;9.910;2024-02-14T09:00:42;1.67;;;1.20;;
19877;SDS011;10101;52.204;9.910;2024-02-14T09:03:09;2.10;;;1.40;;
19877;SDS011;10101;52.204;9.910;2024-02-14T09:05:36;1.47;;;1.20;;
19877;SDS011;10101;52.204;9.910;2024-02-14T09:08:04;1.87;;;1.40;;
19877;SDS011;10101;52.204;9.910;2024-02-14T09:10:31;1.63;;;1.47;;
19877;SDS011;10101;52.204;9.910;2024-02-14T09:12:58;2.20;;;1.70;;
19877;SDS011;10101;52.204;9.910;2024-02-14T09:15:27;2.67;;;1.50;;
19877;SDS011;10101;52.204;9.910;2024-02-14T09:17:56;1.83;;;1.57;;
19877;SDS011;10101;52.204;9.910;2024-02-14T09:20:25;2.23;;;1.73;;
19877;SDS011;10101;52.204;9.910;2024-02-14T09:22:52;3.40;;;2.10;;
19877;SDS011;10101;52.204;9.910;2024-02-14T09:25:19;2.43;;;1.90;;
19877;SDS011;10101;52.204;9.910;2024-02-14T09:27:48;1.93;;;1.73;;
19877;SDS011;10101;52.204;9.910;2024-02-14T09:30:15;4.60;;;1.60;;
19877;SDS011;10101;52.204;9.910;2024-02-14T09:32:44;2.53;;;1.80;;
19877;SDS011;10101;52.204;9.910;2024-02-14T09:35:11;4.67;;;1.90;;
19877;SDS011;10101;52.204;9.910;2024-02-14T09:37:38;3.00;;;1.53;;
19877;SDS011;10101;52.204;9.910;2024-02-14T09:40:05;2.13;;;1.90;;
19877;SDS011;10101;52.204;9.910;2024-02-14T09:42:35;2.33;;;1.90;;
19877;SDS011;10101;52.204;9.910;2024-02-14T09:45:06;2.17;;;1.67;;
19877;SDS011;10101;52.204;9.910;2024-02-14T09:47:33;2.93;;;1.73;;
19877;SDS011;10101;52.204;9.910;2024-02-14T09:50:02;2.83;;;1.53;;
19877;SDS011;10101;52.204;9.910;2024-02-14T09:52:32;3.10;;;1.60;;
19877;SDS011;10101;52.204;9.910;2024-02-14T09:54:59;2.03;;;1.80;;
19877;SDS011;10101;52.204;9.910;2024-02-14T09:57:29;1.80;;;1.70;;
19877;SDS011;10101;52.204;9.910;2024-02-14T09:59:57;4.00;;;1.80;;
19877;SDS011;10101;52.204;9.910;2024-02-14T10:02:26;3.13;;;2.00;;
19877;SDS011;10101;52.204;9.910;2024-02-14T10:04:52;4.17;;;2.40;;
19877;SDS011;10101;52.204;9.910;2024-02-14T10:07:20;6.53;;;1.70;;
19877;SDS011;10101;52.204;9.910;2024-02-14T10:09:47;3.30;;;2.20;;
19877;SDS011;10101;52.204;9.910;2024-02-14T10:12:14;1.73;;;1.53;;
19877;SDS011;10101;52.204;9.910;2024-02-14T10:14:41;3.30;;;1.97;;
19877;SDS011;10101;52.204;9.910;2024-02-14T10:17:07;2.90;;;2.27;;
19877;SDS011;10101;52.204;9.910;2024-02-14T10:19:35;3.23;;;2.20;;
19877;SDS011;10101;52.204;9.910;2024-02-14T10:22:01;3.70;;;2.10;;
19877;SDS011;10101;52.204;9.910;2024-02-14T10:24:31;3.33;;;1.87;;
19877;SDS011;10101;52.204;9.910;2024-02-14T10:26:58;2.80;;;1.97;;
19877;SDS011;10101;52.204;9.910;2024-02-14T10:29:25;5.17;;;1.97;;
19877;SDS011;10101;52.204;9.910;2024-02-14T10:31:52;3.53;;;2.00;;
19877;SDS011;10101;52.204;9.910;2024-02-14T10:34:19;2.67;;;2.10;;
19877;SDS011;10101;52.204;9.910;2024-02-14T10:36:51;2.47;;;2.27;;
19877;SDS011;10101;52.204;9.910;2024-02-14T10:39:19;3.10;;;2.20;;
19877;SDS011;10101;52.204;9.910;2024-02-14T10:41:48;3.50;;;2.23;;
19877;SDS011;10101;52.204;9.910;2024-02-14T10:44:15;3.53;;;2.63;;
19877;SDS011;10101;52.204;9.910;2024-02-14T10:46:42;2.13;;;1.90;;
19877;SDS011;10101;52.204;9.910;2024-02-14T10:49:12;2.50;;;2.30;;
19877;SDS011;10101;52.204;9.910;2024-02-14T10:51:42;4.77;;;2.53;;
19877;SDS011;10101;52.204;9.910;2024-02-14T10:54:13;2.30;;;2.10;;
19877;SDS011;10101;52.204;9.910;2024-02-14T10:56:43;7.37;;;3.73;;
19877;SDS011;10101;52.204;9.910;2024-02-14T10:59:16;4.53;;;2.50;;
19877;SDS011;10101;52.204;9.910;2024-02-14T11:01:45;2.27;;;2.00;;
19877;SDS011;10101;52.204;9.910;2024-02-14T11:04:13;4.90;;;2.37;;
19877;SDS011;10101;52.204;9.910;2024-02-14T11:06:44;2.70;;;2.20;;
19877;SDS011;10101;52.204;9.910;2024-02-14T11:09:11;2.37;;;1.90;;
19877;SDS011;10101;52.204;9.910;2024-02-14T11:11:40;4.03;;;1.90;;
19877;SDS011;10101;52.204;9.910;2024-02-14T11:14:08;1.90;;;1.57;;
19877;SDS011;10101;52.204;9.910;2024-02-14T11:16:36;3.07;;;1.83;;
19877;SDS011;10101;52.204;9.910;2024-02-14T11:19:07;2.77;;;1.80;;
19877;SDS011;10101;52.204;9.910;2024-02-14T11:21:35;2.97;;;1.60;;
19877;SDS011;10101;52.204;9.910;2024-02-14T11:24:06;3.30;;;2.10;;
19877;SDS011;10101;52.204;9.910;2024-02-14T11:26:39;1.63;;;1.53;;
19877;SDS011;10101;52.204;9.910;2024-02-14T11:29:13;2.50;;;1.90;;
19877;SDS011;10101;52.204;9.910;2024-02-14T11:31:42;2.17;;;1.90;;
19877;SDS011;10101;52.204;9.910;2024-02-14T11:34:10;1.83;;;1.73;;
19877;SDS011;10101;52.204;9.910;2024-02-14T11:36:38;2.30;;;1.73;;
19877;SDS011;10101;52.204;9.910;2024-02-14T11:39:07;1.70;;;1.60;;
19877;SDS011;10101;52.204;9.910;2024-02-14T11:41:34;3.23;;;2.67;;
19877;SDS011;10101;52.204;9.910;2024-02-14T11:44:02;2.20;;;1.70;;
19877;SDS011;10101;52.204;9.910;2024-02-14T11:46:30;2.40;;;1.77;;
19877;SDS011;10101;52.204;9.910;2024-02-14T11:48:59;2.23;;;1.70;;
19877;SDS011;10101;52.204;9.910;2024-02-14T11:51:34;3.37;;;1.93;;
19877;SDS011;10101;52.204;9.910;2024-02-14T11:54:01;2.23;;;1.70;;
19877;SDS011;10101;52.204;9.910;2024-02-14T11:56:30;1.90;;;1.80;;
19877;SDS011;10101;52.204;9.910;2024-02-14T11:58:59;1.90;;;1.50;;
19877;SDS011;10101;52.204;9.910;2024-02-14T12:01:28;1.50;;;1.40;;
19877;SDS011;10101;52.204;9.910;2024-02-14T12:03:55;1.43;;;1.33;;
19877;SDS011;10101;52.204;9.910;2024-02-14T12:06:24;3.83;;;1.60;;
19877;SDS011;10101;52.204;9.910;2024-02-14T12:08:51;2.53;;;1.40;;
19877;SDS011;10101;52.204;9.910;2024-02-14T12:11:18;2.53;;;1.47;;
19877;SDS011;10101;52.204;9.910;2024-02-14T12:13:48;3.60;;;1.67;;
19877;SDS011;10101;52.204;9.910;2024-02-14T12:16:15;6.93;;;2.53;;
19877;SDS011;10101;52.204;9.910;2024-02-14T12:18:45;2.57;;;1.40;;
19877;SDS011;10101;52.204;9.910;2024-02-14T12:21:12;1.57;;;1.47;;
19877;SDS011;10101;52.204;9.910;2024-02-14T12:23:41;2.17;;;1.63;;
19877;SDS011;10101;52.204;9.910;2024-02-14T12:26:07;3.50;;;1.80;;
19877;SDS011;10101;52.204;9.910;2024-02-14T12:28:40;2.33;;;1.90;;
19877;SDS011;10101;52.204;9.910;2024-02-14T12:31:06;1.80;;;1.70;;
19877;SDS011;10101;52.204;9.910;2024-02-14T12:33:33;2.47;;;2.27;;
19877;SDS011;10101;52.204;9.910;2024-02-14T12:36:00;1.97;;;1.77;;
19877;SDS011;10101;52.204;9.910;2024-02-14T12:38:28;2.27;;;1.63;;
19877;SDS011;10101;52.204;9.910;2024-02-14T12:40:56;1.73;;;1.60;;
19877;SDS011;10101;52.204;9.910;2024-02-14T12:43:23;2.00;;;1.80;;
19877;SDS011;10101;52.204;9.910;2024-02-14T12:45:49;1.67;;;1.50;;
19877;SDS011;10101;52.204;9.910;2024-02-14T12:48:23;2.13;;;1.50;;
19877;SDS011;10101;52.204;9.910;2024-02-14T12:50:51;2.13;;;1.63;;
19877;SDS011;10101;52.204;9.910;2024-02-14T12:53:18;1.90;;;1.67;;
19877;SDS011;10101;52.204;9.910;2024-02-14T12:55:45;1.67;;;1.40;;
19877;SDS011;10101;52.204;9.910;2024-02-14T12:58:14;2.67;;;1.70;;
19877;SDS011;10101;52.204;9.910;2024-02-14T13:00:41;2.53;;;1.80;;
19877;SDS011;10101;52.204;9.910;2024-02-14T13:03:09;1.40;;;1.30;;
19877;SDS011;10101;52.204;9.910;2024-02-14T13:05:36;2.00;;;1.50;;
19877;SDS011;10101;52.204;9.910;2024-02-14T13:08:03;2.47;;;1.43;;
19877;SDS011;10101;52.204;9.910;2024-02-14T13:10:31;1.43;;;1.33;;
19877;SDS011;10101;52.204;9.910;2024-02-14T13:12:59;1.80;;;1.53;;
19877;SDS011;10101;52.204;9.910;2024-02-14T13:15:27;2.07;;;1.70;;
19877;SDS011;10101;52.204;9.910;2024-02-14T13:17:54;1.67;;;1.57;;
19877;SDS011;10101;52.204;9.910;2024-02-14T13:20:23;1.57;;;1.33;;
19877;SDS011;10101;52.204;9.910;2024-02-14T13:22:49;1.83;;;1.33;;
19877;SDS011;10101;52.204;9.910;2024-02-14T13:25:16;1.40;;;1.30;;
19877;SDS011;10101;52.204;9.910;2024-02-14T13:27:44;2.03;;;1.10;;
19877;SDS011;10101;52.204;9.910;2024-02-14T13:30:11;2.03;;;1.70;;
19877;SDS011;10101;52.204;9.910;2024-02-14T13:32:39;2.83;;;1.70;;
19877;SDS011;10101;52.204;9.910;2024-02-14T13:35:06;1.70;;;1.50;;
19877;SDS011;10101;52.204;9.910;2024-02-14T13:37:33;1.30;;;1.20;;
19877;SDS011;10101;52.204;9.910;2024-02-14T13:40:00;1.60;;;1.43;;
19877;SDS011;10101;52.204;9.910;2024-02-14T13:42:29;1.53;;;1.13;;
19877;SDS011;10101;52.204;9.910;2024-02-14T13:44:56;1.53;;;1.20;;
19877;SDS011;10101;52.204;9.910;2024-02-14T13:47:22;1.63;;;1.40;;
19877;SDS011;10101;52.204;9.910;2024-02-14T13:49:50;1.20;;;1.10;;
19877;SDS011;10101;52.204;9.910;2024-02-14T13:52:17;1.20;;;1.00;;
19877;SDS011;10101;52.204;9.910;2024-02-14T13:54:45;0.80;;;0.80;;
19877;SDS011;10101;52.204;9.910;2024-02-14T13:57:12;1.80;;;0.90;;
19877;SDS011;10101;52.204;9.910;2024-02-14T13:59:38;1.07;;;0.80;;
19877;SDS011;10101;52.204;9.910;2024-02-14T14:02:05;0.90;;;0.90;;
19877;SDS011;10101;52.204;9.910;2024-02-14T14:04:33;1.67;;;0.90;;
19877;SDS011;10101;52.204;9.910;2024-02-14T14:07:02;0.83;;;0.70;;
19877;SDS011;10101;52.204;9.910;2024-02-14T14:09:29;1.17;;;1.07;;
19877;SDS011;10101;52.204;9.910;2024-02-14T14:11:57;0.90;;;0.90;;
19877;SDS011;10101;52.204;9.910;2024-02-14T14:14:24;0.97;;;0.97;;
19877;SDS011;10101;52.204;9.910;2024-02-14T14:16:51;1.10;;;1.00;;
19877;SDS011;10101;52.204;9.910;2024-02-14T14:19:18;0.90;;;0.80;;
19877;SDS011;10101;52.204;9.910;2024-02-14T14:21:45;1.10;;;1.00;;
19877;SDS011;10101;52.204;9.910;2024-02-14T14:24:13;0.70;;;0.70;;
19877;SDS011;10101;52.204;9.910;2024-02-14T14:26:40;0.97;;;0.90;;
19877;SDS011;10101;52.204;9.910;2024-02-14T14:29:08;2.10;;;0.90;;
19877;SDS011;10101;52.204;9.910;2024-02-14T14:31:35;1.00;;;0.83;;
19877;SDS011;10101;52.204;9.910;2024-02-14T14:34:02;2.73;;;1.20;;
19877;SDS011;10101;52.204;9.910;2024-02-14T14:36:29;0.90;;;0.90;;
19877;SDS011;10101;52.204;9.910;2024-02-14T14:38:55;1.03;;;0.70;;
19877;SDS011;10101;52.204;9.910;2024-02-14T14:41:24;1.47;;;0.80;;
19877;SDS011;10101;52.204;9.910;2024-02-14T14:43:51;1.60;;;0.80;;
19877;SDS011;10101;52.204;9.910;2024-02-14T14:46:18;2.50;;;0.87;;
19877;SDS011;10101;52.204;9.910;2024-02-14T14:48:44;0.70;;;0.70;;